Dorchester, New Hampshire
Current Conditions -  °F | °C
As of 6:35 AM on Saturday 25 Oct 2014 (Local Time) from K1P1 Reporting Station
Clear Clear  
Wind Chill:   Ceiling: Unl
Heat Index:   Visibility: 10mi
Dew Point:   Wind: 6mph
Humidity: 82%   Direction: 330°NNW
Pressure: 29.73"   Gusts: NA
Location:  43.7922°N, 71.8971°W
Report Text: K1P1 251035Z AUTO 33005KT 10SM CLR 06/04 A2973 RMK AO2 T00630035
Loading
Personal Weather Stations






























Interactive Weather Map
Tropical Storm Tracking
New forecast layout! Learn more

10-Day Weather Forecast

Advertisements
Track Severe Weather on mobile